Huvudsida
METAR-TAF:

METAR-TAF

Flygplatser :

Molde flygplats. Årø

Molde, Norge

latitud: 62-45N, longitud: 007-16E, höjd: 0 m

Aktuellt väderrapport

Denna rapport gjordes för 31 minuter sedan, klockan 09:20 UTC
Vind 7 kt från ost
Temperatur 12°C
Fuktighet 82%
Tryck 1015 hPa
Sikt 10 km eller mer
Inga moln under 1 500 m eller inga cumulonimbus

METAR: ENML 230920Z 08007KT CAVOK 12/09 Q1015

Tid: 11:51 (09:51 UTC)

Väderprognos

Denna rapport gjordes för 1 timme och 51 minuter sedan, klockan 08:00 UTC
Prognos gäller från 23 kl. 09 UTC till 23 kl. 18 UTC
Vind 5 kt från ost/nordost
Sikt 10 km eller mer
Inga moln under 1 500 m eller inga cumulonimbus

TAF: ENML 230800Z 2309/2318 06005KT CAVOK

Aktuella väderrapporter och prognoser från 4000 flygplatser (METAR- och TAF-rapporter).

De tillgängliga stationerna syns som gula och röda prickar på kartan.

För musen över prickarna för att se namnen på stationerna.

Klicka sedan för att få väderrapporter och prognoser.

För att ändra kartan: Klicka på de gröna knapparna med ett svart kors på för att zooma in; den gröna knappen med ett streck på för att zooma ut; eller på de gröna pilarna för angränsande kartor.


METAR-TAF: